createdAt,value
2019-06-07T00:00:54.572Z,0.00
2019-06-07T00:01:54.523Z,0.00
2019-06-07T00:02:54.469Z,0.00
2019-06-07T00:03:54.426Z,0.00
2019-06-07T00:04:54.410Z,0.00
2019-06-07T00:05:54.320Z,0.00
2019-06-07T00:06:54.274Z,0.00
2019-06-07T00:07:54.224Z,0.00
2019-06-07T00:08:54.201Z,0.00
2019-06-07T00:09:54.138Z,0.00
2019-06-07T00:10:54.066Z,0.00
2019-06-07T00:11:54.016Z,0.00
2019-06-07T00:12:53.964Z,0.00
2019-06-07T00:13:53.918Z,0.00
2019-06-07T00:14:53.886Z,0.00
2019-06-07T00:15:53.818Z,0.00
2019-06-07T00:16:53.759Z,0.00
2019-06-07T00:17:53.711Z,0.00
2019-06-07T00:18:53.656Z,0.00
2019-06-07T00:19:53.627Z,0.00
2019-06-07T00:20:53.561Z,0.00
2019-06-07T00:22:15.841Z,0.00
2019-06-07T00:22:53.462Z,0.00
2019-06-07T00:23:53.403Z,0.00
2019-06-07T00:24:53.384Z,0.00
2019-06-07T00:25:53.304Z,0.00
2019-06-07T00:26:58.749Z,0.00
2019-06-07T00:27:53.203Z,0.00
2019-06-07T00:28:53.154Z,0.00
2019-06-07T00:29:53.133Z,0.00
2019-06-07T00:30:53.059Z,0.00
2019-06-07T00:31:53.000Z,0.00
2019-06-07T00:32:52.949Z,0.00
2019-06-07T00:33:52.897Z,0.00
2019-06-07T00:34:52.870Z,0.00
2019-06-07T00:35:52.799Z,0.00
2019-06-07T00:36:52.808Z,0.00
2019-06-07T00:37:52.699Z,0.00
2019-06-07T00:38:52.649Z,0.00
2019-06-07T00:40:12.913Z,0.00
2019-06-07T00:40:52.549Z,0.00
2019-06-07T00:41:52.525Z,0.00
2019-06-07T00:42:52.443Z,0.00
2019-06-07T00:43:52.391Z,0.00
2019-06-07T00:44:52.364Z,0.00
2019-06-07T00:45:52.303Z,0.00
2019-06-07T00:46:52.242Z,0.00
2019-06-07T00:47:52.191Z,0.00
2019-06-07T00:48:52.150Z,0.00
2019-06-07T00:49:52.122Z,0.00
2019-06-07T00:50:52.040Z,0.00
2019-06-07T00:51:53.723Z,0.00
2019-06-07T00:53:14.570Z,0.00
2019-06-07T00:53:51.894Z,0.00
2019-06-07T00:54:51.842Z,0.00
2019-06-07T00:55:51.807Z,0.00
2019-06-07T00:56:51.736Z,0.00
2019-06-07T00:57:51.687Z,0.00
2019-06-07T00:59:10.426Z,0.00
2019-06-07T00:59:51.585Z,0.00
2019-06-07T01:00:51.558Z,0.00
2019-06-07T01:01:51.480Z,0.00
2019-06-07T01:02:51.425Z,0.00
2019-06-07T01:03:51.385Z,0.00
2019-06-07T01:04:51.330Z,0.00
2019-06-07T01:05:51.306Z,0.00
2019-06-07T01:06:51.231Z,0.00
2019-06-07T01:07:51.180Z,0.00
2019-06-07T01:08:51.123Z,0.00
2019-06-07T01:09:51.069Z,0.00
2019-06-07T01:10:53.986Z,0.00
2019-06-07T01:11:50.970Z,0.00
2019-06-07T01:12:50.927Z,0.00
2019-06-07T01:13:50.889Z,0.00
2019-06-07T01:14:50.819Z,0.00
2019-06-07T01:15:50.797Z,0.00
2019-06-07T01:16:57.110Z,0.00
2019-06-07T01:18:33.210Z,0.00
2019-06-07T01:18:51.342Z,0.00
2019-06-07T01:19:50.570Z,0.00
2019-06-07T01:20:50.543Z,0.00
2019-06-07T01:21:50.466Z,0.00
2019-06-07T01:22:50.412Z,0.00
2019-06-07T01:24:11.967Z,0.00
2019-06-07T01:24:50.315Z,0.00
2019-06-07T01:25:50.286Z,0.00
2019-06-07T01:26:50.214Z,0.00
2019-06-07T01:27:50.162Z,0.00
2019-06-07T01:28:50.106Z,0.00
2019-06-07T01:29:50.061Z,0.00
2019-06-07T01:30:50.025Z,0.00
2019-06-07T01:31:49.958Z,0.00
2019-06-07T01:32:49.910Z,0.00
2019-06-07T01:33:51.395Z,0.00
2019-06-07T01:34:49.800Z,0.00
2019-06-07T01:35:49.774Z,0.00
2019-06-07T01:36:49.705Z,0.00
2019-06-07T01:37:49.654Z,0.00
2019-06-07T01:38:49.665Z,0.00
2019-06-07T01:39:49.557Z,0.00
2019-06-07T01:40:49.526Z,0.00
2019-06-07T01:41:49.449Z,0.00
2019-06-07T01:42:49.397Z,0.00
2019-06-07T01:43:49.352Z,0.00
2019-06-07T01:44:49.294Z,0.00
2019-06-07T01:45:49.271Z,0.00
2019-06-07T01:46:49.221Z,0.00
2019-06-07T01:47:49.144Z,0.00
2019-06-07T01:48:50.029Z,0.00
2019-06-07T01:49:49.049Z,0.00
2019-06-07T01:50:49.027Z,0.00
2019-06-07T01:51:48.939Z,0.00
2019-06-07T01:52:48.888Z,0.00
2019-06-07T01:53:48.844Z,0.00
2019-06-07T01:54:57.487Z,0.00
2019-06-07T01:55:48.758Z,0.00
2019-06-07T01:56:48.679Z,0.00
2019-06-07T01:57:48.821Z,0.00
2019-06-07T01:58:48.580Z,0.00
2019-06-07T01:59:48.574Z,0.00
2019-06-07T02:00:48.511Z,0.00
2019-06-07T02:01:48.425Z,0.00
2019-06-07T02:02:48.383Z,0.00
2019-06-07T02:03:48.339Z,0.00
2019-06-07T02:04:48.276Z,0.00
2019-06-07T02:05:48.253Z,0.00
2019-06-07T02:06:48.173Z,0.00
2019-06-07T02:07:48.118Z,0.00
2019-06-07T02:08:48.074Z,0.00
2019-06-07T02:09:48.030Z,0.00
2019-06-07T02:10:47.994Z,0.00
2019-06-07T02:11:47.916Z,0.00
2019-06-07T02:12:47.894Z,0.00
2019-06-07T02:13:47.820Z,0.00
2019-06-07T02:14:47.776Z,0.00
2019-06-07T02:15:47.739Z,0.00
2019-06-07T02:16:47.663Z,0.00
2019-06-07T02:17:47.610Z,0.00
2019-06-07T02:19:01.050Z,0.00
2019-06-07T02:19:47.509Z,0.00
2019-06-07T02:20:47.488Z,0.00
2019-06-07T02:21:47.410Z,0.00
2019-06-07T02:22:47.355Z,0.00
2019-06-07T02:23:47.303Z,0.00
2019-06-07T02:25:34.037Z,0.00
2019-06-07T02:25:50.494Z,0.00
2019-06-07T02:26:47.154Z,0.00
2019-06-07T02:27:47.098Z,0.00
2019-06-07T02:28:47.046Z,0.00
2019-06-07T02:29:46.996Z,0.00
2019-06-07T02:30:58.906Z,0.00
2019-06-07T02:31:46.921Z,0.00
2019-06-07T02:32:46.843Z,0.00
2019-06-07T02:33:46.800Z,0.00
2019-06-07T02:34:46.742Z,0.00
2019-06-07T02:35:46.695Z,4.00
2019-06-07T02:36:46.664Z,4.00
2019-06-07T02:37:46.595Z,4.00
2019-06-07T02:38:46.537Z,0.00
2019-06-07T02:39:46.489Z,0.00
2019-06-07T02:40:46.437Z,4.00
2019-06-07T02:41:46.411Z,4.00
2019-06-07T02:42:46.333Z,4.00
2019-06-07T02:43:46.284Z,4.00
2019-06-07T02:44:46.230Z,4.00
2019-06-07T02:45:46.192Z,4.00
2019-06-07T02:46:49.633Z,4.00
2019-06-07T02:47:46.076Z,8.00
2019-06-07T02:48:46.023Z,8.00
2019-06-07T02:49:45.973Z,8.00
2019-06-07T02:50:45.954Z,8.00
2019-06-07T02:51:45.893Z,8.00
2019-06-07T02:52:45.823Z,8.00
2019-06-07T02:53:45.767Z,8.00
2019-06-07T02:54:45.712Z,16.00
2019-06-07T02:56:34.070Z,16.00
2019-06-07T02:56:57.314Z,16.00
2019-06-07T02:57:45.566Z,16.00
2019-06-07T02:58:45.510Z,20.00
2019-06-07T03:00:06.533Z,20.00
2019-06-07T03:01:05.602Z,24.00
2019-06-07T03:01:45.442Z,24.00
2019-06-07T03:02:45.304Z,24.00
2019-06-07T03:03:45.258Z,32.00
2019-06-07T03:04:45.236Z,32.00
2019-06-07T03:05:45.155Z,36.00
2019-06-07T03:06:45.119Z,36.00
2019-06-07T03:07:45.850Z,40.00
2019-06-07T03:08:45.012Z,44.00
2019-06-07T03:09:44.945Z,44.00
2019-06-07T03:10:44.896Z,52.00
2019-06-07T03:11:44.881Z,56.00
2019-06-07T03:12:44.794Z,60.00
2019-06-07T03:13:44.742Z,64.00
2019-06-07T03:14:44.710Z,68.00
2019-06-07T03:15:50.033Z,72.00
2019-06-07T03:16:44.590Z,72.00
2019-06-07T03:17:44.558Z,80.00
2019-06-07T03:18:44.479Z,84.00
2019-06-07T03:19:44.431Z,92.00
2019-06-07T03:20:44.381Z,96.00
2019-06-07T03:21:44.330Z,100.00
2019-06-07T03:22:44.300Z,108.00
2019-06-07T03:23:44.226Z,112.00
2019-06-07T03:24:44.273Z,120.00
2019-06-07T03:25:44.117Z,128.00
2019-06-07T03:27:31.725Z,136.00
2019-06-07T03:27:49.960Z,144.00
2019-06-07T03:28:43.976Z,152.00
2019-06-07T03:29:43.914Z,160.00
2019-06-07T03:31:01.040Z,168.00
2019-06-07T03:31:47.632Z,176.00
2019-06-07T03:32:47.812Z,188.00
2019-06-07T03:33:45.539Z,192.00
2019-06-07T03:34:44.036Z,200.00
2019-06-07T03:35:43.610Z,212.00
2019-06-07T03:36:43.556Z,220.00
2019-06-07T03:37:43.523Z,228.00
2019-06-07T03:38:43.456Z,240.00
2019-06-07T03:39:43.398Z,248.00
2019-06-07T03:40:43.349Z,264.00
2019-06-07T03:42:04.662Z,276.00
2019-06-07T03:42:43.276Z,288.00
2019-06-07T03:43:43.199Z,300.00
2019-06-07T03:44:43.151Z,316.00
2019-06-07T03:45:43.087Z,324.00
2019-06-07T03:46:43.037Z,336.00
2019-06-07T03:47:43.405Z,344.00
2019-06-07T03:48:42.937Z,356.00
2019-06-07T03:49:42.931Z,368.00
2019-06-07T03:50:42.912Z,384.00
2019-06-07T03:51:42.784Z,392.00
2019-06-07T03:52:42.752Z,404.00
2019-06-07T03:53:42.681Z,416.00
2019-06-07T03:54:42.629Z,428.00
2019-06-07T03:55:42.571Z,444.00
2019-06-07T03:56:42.591Z,464.00
2019-06-07T03:58:49.884Z,500.00
2019-06-07T03:59:42.370Z,520.00
2019-06-07T04:00:43.444Z,536.00
2019-06-07T04:01:42.265Z,564.00
2019-06-07T04:02:42.453Z,588.00
2019-06-07T04:03:50.707Z,620.00
2019-06-07T04:04:42.118Z,656.00
2019-06-07T04:05:43.620Z,696.00
2019-06-07T04:06:42.650Z,740.00
2019-06-07T04:07:44.396Z,788.00
2019-06-07T04:08:42.326Z,836.00
2019-06-07T04:09:43.018Z,876.00
2019-06-07T04:10:58.706Z,932.00
2019-06-07T04:11:41.757Z,988.00
2019-06-07T04:12:43.975Z,1048.00
2019-06-07T04:13:43.096Z,1100.00
2019-06-07T04:14:42.825Z,1152.00
2019-06-07T04:15:41.607Z,1220.00
2019-06-07T04:16:44.596Z,1276.00
2019-06-07T04:18:00.501Z,1328.00
2019-06-07T04:18:42.484Z,1364.00
2019-06-07T04:19:43.303Z,1416.00
2019-06-07T04:20:41.589Z,1456.00
2019-06-07T04:21:42.977Z,1492.00
2019-06-07T04:22:42.731Z,1520.00
2019-06-07T04:23:45.540Z,1536.00
2019-06-07T04:24:42.069Z,1552.00
2019-06-07T04:25:42.700Z,1576.00
2019-06-07T04:26:43.733Z,1624.00
2019-06-07T04:27:41.216Z,1652.00
2019-06-07T04:29:31.108Z,1688.00
2019-06-07T04:30:03.045Z,1720.00
2019-06-07T04:30:41.970Z,1760.00
2019-06-07T04:31:42.859Z,1788.00
2019-06-07T04:32:45.044Z,1788.00
2019-06-07T04:33:43.611Z,1788.00
2019-06-07T04:34:43.166Z,1824.00
2019-06-07T04:35:42.990Z,1888.00
2019-06-07T04:36:55.830Z,1928.00
2019-06-07T04:37:41.530Z,1960.00
2019-06-07T04:38:42.446Z,2008.00
2019-06-07T04:39:44.552Z,2080.00
2019-06-07T04:40:42.817Z,2116.00
2019-06-07T04:41:41.003Z,2140.00
2019-06-07T04:42:44.773Z,2184.00
2019-06-07T04:43:41.151Z,2248.00
2019-06-07T04:44:42.582Z,2300.00
2019-06-07T04:45:49.763Z,2308.00
2019-06-07T04:46:42.806Z,2332.00
2019-06-07T04:47:42.313Z,2348.00
2019-06-07T04:48:43.274Z,2376.00
2019-06-07T04:49:43.507Z,2388.00
2019-06-07T04:50:43.498Z,2424.00
2019-06-07T04:51:41.152Z,2488.00
2019-06-07T04:52:42.671Z,2532.00
2019-06-07T04:53:43.052Z,2588.00
2019-06-07T04:54:45.600Z,2652.00
2019-06-07T04:55:41.601Z,2660.00
2019-06-07T04:56:44.104Z,2716.00
2019-06-07T04:57:42.705Z,2800.00
2019-06-07T04:58:41.339Z,2872.00
2019-06-07T05:00:11.367Z,2940.00
2019-06-07T05:00:52.403Z,2964.00
2019-06-07T05:01:42.234Z,2976.00
2019-06-07T05:02:41.841Z,3064.00
2019-06-07T05:03:43.900Z,3084.00
2019-06-07T05:04:39.916Z,3040.00
2019-06-07T05:05:43.124Z,3124.00
2019-06-07T05:06:40.306Z,3204.00
2019-06-07T05:07:43.137Z,3188.00
2019-06-07T05:08:43.618Z,3196.00
2019-06-07T05:09:42.943Z,3296.00
2019-06-07T05:10:41.158Z,3324.00
2019-06-07T05:11:43.356Z,3376.00
2019-06-07T05:12:41.605Z,3480.00
2019-06-07T05:13:43.095Z,3476.00
2019-06-07T05:14:39.887Z,3488.00
2019-06-07T05:15:40.227Z,3536.00
2019-06-07T05:16:41.419Z,3532.00
2019-06-07T05:17:42.660Z,3568.00
2019-06-07T05:18:41.622Z,3576.00
2019-06-07T05:19:39.243Z,3568.00
2019-06-07T05:20:40.807Z,3532.00
2019-06-07T05:21:58.645Z,3608.00
2019-06-07T05:22:40.669Z,3624.00
2019-06-07T05:24:40.785Z,3652.00
2019-06-07T05:25:39.280Z,3668.00
2019-06-07T05:26:40.440Z,3700.00
2019-06-07T05:27:39.380Z,3720.00
2019-06-07T05:28:40.920Z,3724.00
2019-06-07T05:29:39.218Z,3620.00
2019-06-07T05:31:41.722Z,2980.00
2019-06-07T05:32:42.942Z,3024.00
2019-06-07T05:33:38.912Z,3016.00
2019-06-07T05:34:41.902Z,3048.00
2019-06-07T05:35:40.965Z,3068.00
2019-06-07T05:36:41.401Z,3076.00
2019-06-07T05:37:38.216Z,3068.00
2019-06-07T05:38:42.208Z,3116.00
2019-06-07T05:39:41.984Z,3160.00
2019-06-07T05:40:39.447Z,3180.00
2019-06-07T05:41:41.197Z,3192.00
2019-06-07T05:42:40.355Z,3240.00
2019-06-07T05:43:41.035Z,3240.00
2019-06-07T05:44:39.096Z,3276.00
2019-06-07T05:45:39.260Z,3304.00
2019-06-07T05:46:38.561Z,3268.00
2019-06-07T05:47:40.943Z,3272.00
2019-06-07T05:48:40.303Z,3364.00
2019-06-07T05:49:39.558Z,3416.00
2019-06-07T05:50:46.283Z,3460.00
2019-06-07T05:51:38.076Z,3500.00
2019-06-07T05:52:39.975Z,3496.00
2019-06-07T05:53:38.987Z,3524.00
2019-06-07T05:54:38.239Z,3520.00
2019-06-07T05:55:37.812Z,3448.00
2019-06-07T05:56:39.055Z,3556.00
2019-06-07T05:57:40.473Z,3528.00
2019-06-07T05:58:37.750Z,3508.00
2019-06-07T05:59:39.713Z,3544.00
2019-06-07T06:00:38.045Z,3612.00
2019-06-07T06:01:45.044Z,3640.00
2019-06-07T06:02:59.004Z,3652.00
2019-06-07T06:03:36.607Z,3644.00
2019-06-07T06:04:36.362Z,3632.00
2019-06-07T06:05:41.613Z,3648.00
2019-06-07T06:06:36.400Z,3644.00
2019-06-07T06:07:41.247Z,3640.00
2019-06-07T06:08:37.508Z,3640.00
2019-06-07T06:09:36.464Z,3676.00
2019-06-07T06:10:39.083Z,3696.00
2019-06-07T06:11:49.513Z,3712.00
2019-06-07T06:12:40.873Z,3672.00
2019-06-07T06:14:01.538Z,3724.00
2019-06-07T06:14:39.570Z,3768.00
2019-06-07T06:15:45.391Z,3808.00
2019-06-07T06:16:37.102Z,3772.00
2019-06-07T06:17:37.690Z,3780.00
2019-06-07T06:18:35.666Z,3804.00
2019-06-07T06:19:36.821Z,3816.00
2019-06-07T06:21:02.212Z,3428.00
2019-06-07T06:21:36.206Z,3648.00
2019-06-07T06:22:37.116Z,3716.00
2019-06-07T06:23:39.015Z,3636.00
2019-06-07T06:24:37.100Z,3444.00
2019-06-07T06:25:35.209Z,3636.00
2019-06-07T06:26:38.449Z,3608.00
2019-06-07T06:28:05.885Z,3504.00
2019-06-07T06:28:36.850Z,3776.00
2019-06-07T06:29:38.032Z,3772.00
2019-06-07T06:30:35.906Z,3688.00
2019-06-07T06:31:34.818Z,3504.00
2019-06-07T06:32:51.051Z,3684.00
2019-06-07T06:33:35.117Z,3708.00
2019-06-07T06:34:34.702Z,3780.00
2019-06-07T06:35:34.629Z,3772.00
2019-06-07T06:36:34.624Z,3792.00
2019-06-07T06:37:34.532Z,3744.00
2019-06-07T06:38:34.493Z,3772.00
2019-06-07T06:39:34.462Z,3704.00
2019-06-07T06:40:34.402Z,3836.00
2019-06-07T06:41:46.222Z,3784.00
2019-06-07T06:42:34.296Z,3824.00
2019-06-07T06:43:34.249Z,3840.00
2019-06-07T06:44:34.230Z,3776.00
2019-06-07T06:45:34.151Z,3788.00
2019-06-07T06:46:41.103Z,3860.00
2019-06-07T06:47:34.059Z,3884.00
2019-06-07T06:48:34.014Z,3752.00
2019-06-07T06:49:33.988Z,3716.00
2019-06-07T06:50:33.917Z,3708.00
2019-06-07T06:51:33.869Z,3764.00
2019-06-07T06:52:33.834Z,3760.00
2019-06-07T06:53:33.773Z,3776.00
2019-06-07T06:54:41.031Z,3740.00
2019-06-07T06:55:33.682Z,3712.00
2019-06-07T06:56:33.634Z,3636.00
2019-06-07T06:57:33.591Z,3896.00
2019-06-07T06:59:18.441Z,3920.00
2019-06-07T06:59:39.298Z,3824.00
2019-06-07T07:00:43.705Z,3964.00
2019-06-07T07:01:33.396Z,3452.00
2019-06-07T07:02:33.362Z,4164.00
2019-06-07T07:03:57.691Z,3736.00
2019-06-07T07:04:33.254Z,3896.00
2019-06-07T07:05:33.234Z,4076.00
2019-06-07T07:06:33.177Z,3852.00
2019-06-07T07:07:33.119Z,3848.00
2019-06-07T07:08:33.065Z,4008.00
2019-06-07T07:09:33.019Z,4352.00
2019-06-07T07:10:32.997Z,4104.00
2019-06-07T07:11:32.926Z,4168.00
2019-06-07T07:12:32.878Z,3856.00
2019-06-07T07:13:32.829Z,3804.00
2019-06-07T07:14:32.785Z,4164.00
2019-06-07T07:15:32.762Z,3716.00
2019-06-07T07:16:32.692Z,3796.00
2019-06-07T07:17:51.028Z,1920.00
2019-06-07T07:18:32.595Z,3588.00
2019-06-07T07:19:32.550Z,4148.00
2019-06-07T07:20:32.525Z,5256.00
2019-06-07T07:21:32.455Z,2912.00
2019-06-07T07:22:32.411Z,5132.00
2019-06-07T07:23:32.361Z,2992.00
2019-06-07T07:24:32.317Z,2008.00
2019-06-07T07:25:32.334Z,2016.00
2019-06-07T07:26:32.227Z,1776.00
2019-06-07T07:27:32.176Z,2432.00
2019-06-07T07:28:32.128Z,4112.00
2019-06-07T07:29:32.081Z,4000.00
2019-06-07T07:30:36.839Z,3476.00
2019-06-07T07:31:31.989Z,4628.00
2019-06-07T07:32:31.942Z,4504.00
2019-06-07T07:34:21.032Z,3288.00
2019-06-07T07:34:36.712Z,4212.00
2019-06-07T07:35:31.820Z,4136.00
2019-06-07T07:36:39.545Z,5140.00
2019-06-07T07:37:31.701Z,3748.00
2019-06-07T07:38:31.654Z,4760.00
2019-06-07T07:39:31.605Z,5080.00
2019-06-07T07:41:31.507Z,4044.00
2019-06-07T07:42:31.470Z,4916.00
2019-06-07T07:43:31.747Z,4764.00
2019-06-07T07:44:31.372Z,5164.00
2019-06-07T07:45:31.359Z,3792.00
2019-06-07T07:46:31.278Z,3592.00
2019-06-07T07:47:31.232Z,2912.00
2019-06-07T07:48:31.184Z,3812.00
2019-06-07T07:49:31.137Z,3656.00
2019-06-07T07:50:31.120Z,4688.00
2019-06-07T07:51:31.211Z,4892.00
2019-06-07T07:52:30.997Z,5236.00
2019-06-07T07:53:47.811Z,3584.00
2019-06-07T07:54:30.899Z,4236.00
2019-06-07T07:55:30.927Z,3672.00
2019-06-07T07:56:30.810Z,4288.00
2019-06-07T07:57:30.792Z,4256.00
2019-06-07T07:58:30.714Z,3232.00
2019-06-07T07:59:41.834Z,3044.00
2019-06-07T08:00:52.539Z,3320.00
2019-06-07T08:01:30.574Z,2484.00
2019-06-07T08:02:30.527Z,2324.00
2019-06-07T08:03:30.478Z,2816.00
2019-06-07T08:05:12.705Z,2844.00
2019-06-07T08:05:42.410Z,2768.00
2019-06-07T08:06:30.337Z,3256.00
2019-06-07T08:07:30.562Z,3128.00
2019-06-07T08:08:30.242Z,4532.00
2019-06-07T08:09:30.196Z,2456.00
2019-06-07T08:10:30.220Z,3228.00
2019-06-07T08:11:30.103Z,4748.00
2019-06-07T08:12:30.056Z,3672.00
2019-06-07T08:13:30.009Z,3288.00
2019-06-07T08:14:29.959Z,3324.00
2019-06-07T08:15:29.936Z,3412.00
2019-06-07T08:16:29.889Z,3104.00
2019-06-07T08:17:29.819Z,2796.00
2019-06-07T08:18:29.772Z,4760.00
2019-06-07T08:19:29.728Z,3432.00
2019-06-07T08:20:29.696Z,3072.00
2019-06-07T08:21:29.650Z,2768.00
2019-06-07T08:22:29.585Z,3344.00
2019-06-07T08:23:29.538Z,3380.00
2019-06-07T08:24:29.490Z,4872.00
2019-06-07T08:25:29.441Z,3820.00
2019-06-07T08:26:29.418Z,3632.00
2019-06-07T08:27:29.348Z,2948.00
2019-06-07T08:28:29.304Z,3268.00
2019-06-07T08:29:44.330Z,4480.00
2019-06-07T08:31:29.181Z,2720.00
2019-06-07T08:32:29.185Z,2696.00
2019-06-07T08:33:29.067Z,2720.00
2019-06-07T08:34:29.017Z,3996.00
2019-06-07T08:36:03.859Z,3920.00
2019-06-07T08:36:41.411Z,2848.00
2019-06-07T08:38:13.307Z,3028.00
2019-06-07T08:38:44.972Z,3292.00
2019-06-07T08:39:28.781Z,3440.00
2019-06-07T08:40:28.752Z,2972.00
2019-06-07T08:41:28.725Z,3692.00
2019-06-07T08:42:36.957Z,3336.00
2019-06-07T08:43:28.594Z,2992.00
2019-06-07T08:44:28.547Z,3136.00
2019-06-07T08:45:28.500Z,3304.00
2019-06-07T08:46:28.475Z,4148.00
2019-06-07T08:47:28.407Z,3776.00
2019-06-07T08:48:30.278Z,3608.00
2019-06-07T08:49:28.311Z,3644.00
2019-06-07T08:50:28.266Z,3212.00
2019-06-07T08:51:28.238Z,5140.00
2019-06-07T08:52:28.171Z,3184.00
2019-06-07T08:53:28.124Z,3492.00
2019-06-07T08:54:28.079Z,3008.00
2019-06-07T08:55:28.028Z,2920.00
2019-06-07T08:56:28.010Z,3276.00
2019-06-07T08:57:27.935Z,3420.00
2019-06-07T08:58:27.888Z,3412.00
2019-06-07T08:59:27.840Z,3624.00
2019-06-07T09:00:47.239Z,3712.00
2019-06-07T09:01:27.770Z,3132.00
2019-06-07T09:02:27.706Z,5140.00
2019-06-07T09:03:27.655Z,3364.00
2019-06-07T09:04:27.611Z,3556.00
2019-06-07T09:05:27.561Z,3096.00
2019-06-07T09:07:01.841Z,4008.00
2019-06-07T09:07:27.465Z,2996.00
2019-06-07T09:08:30.789Z,3168.00
2019-06-07T09:09:27.376Z,3336.00
2019-06-07T09:10:27.326Z,3252.00
2019-06-07T09:11:27.305Z,3044.00
2019-06-07T09:12:27.235Z,3560.00
2019-06-07T09:13:27.195Z,3216.00
2019-06-07T09:14:27.143Z,3000.00
2019-06-07T09:15:27.096Z,3152.00
2019-06-07T09:16:27.071Z,2976.00
2019-06-07T09:17:27.006Z,2944.00
2019-06-07T09:18:44.830Z,2900.00
2019-06-07T09:19:26.931Z,2932.00
2019-06-07T09:20:36.994Z,2964.00
2019-06-07T09:21:26.838Z,3004.00
2019-06-07T09:22:26.767Z,3208.00
2019-06-07T09:23:26.724Z,2048.00
2019-06-07T09:24:26.676Z,4736.00
2019-06-07T09:25:26.629Z,3240.00
2019-06-07T09:26:26.604Z,3068.00
2019-06-07T09:27:26.539Z,3008.00
2019-06-07T09:28:26.492Z,3448.00
2019-06-07T09:29:26.446Z,2744.00
2019-06-07T09:30:26.408Z,2780.00
2019-06-07T09:31:50.741Z,2816.00
2019-06-07T09:32:26.308Z,2952.00
2019-06-07T09:33:26.258Z,3416.00
2019-06-07T09:34:26.248Z,2892.00
2019-06-07T09:35:26.167Z,2704.00
2019-06-07T09:36:26.146Z,2720.00
2019-06-07T09:38:26.912Z,2720.00
2019-06-07T09:39:25.984Z,2688.00
2019-06-07T09:40:27.862Z,2652.00
2019-06-07T09:41:46.207Z,2720.00
2019-06-07T09:42:25.842Z,2732.00
2019-06-07T09:44:26.687Z,2856.00
2019-06-07T09:45:25.709Z,2740.00
2019-06-07T09:46:25.658Z,2796.00
2019-06-07T09:47:32.251Z,2760.00
2019-06-07T09:49:09.105Z,2740.00
2019-06-07T09:49:32.997Z,2960.00
2019-06-07T09:50:25.474Z,3384.00
2019-06-07T09:51:25.429Z,3024.00
2019-06-07T09:52:25.441Z,3232.00
2019-06-07T09:53:25.339Z,2960.00
2019-06-07T09:55:03.026Z,3472.00
2019-06-07T09:55:25.572Z,3116.00
2019-06-07T09:56:25.198Z,3104.00
2019-06-07T09:57:25.177Z,3104.00
2019-06-07T09:59:25.073Z,2992.00
2019-06-07T10:00:42.364Z,2872.00
2019-06-07T10:01:24.973Z,2936.00
2019-06-07T10:02:24.950Z,2964.00
2019-06-07T10:03:24.883Z,3032.00
2019-06-07T10:04:31.146Z,3220.00
2019-06-07T10:05:24.790Z,3144.00
2019-06-07T10:06:24.741Z,3044.00
2019-06-07T10:07:31.796Z,3332.00
2019-06-07T10:09:42.219Z,4320.00
2019-06-07T10:11:24.517Z,2800.00
2019-06-07T10:12:24.492Z,3148.00
2019-06-07T10:13:24.426Z,3740.00
2019-06-07T10:14:24.379Z,2932.00
2019-06-07T10:15:24.332Z,2236.00
2019-06-07T10:16:24.287Z,4316.00
2019-06-07T10:17:24.264Z,3300.00
2019-06-07T10:18:24.195Z,3116.00
2019-06-07T10:19:24.149Z,2980.00
2019-06-07T10:20:24.104Z,3276.00
2019-06-07T10:21:24.061Z,3288.00
2019-06-07T10:22:24.038Z,3092.00
2019-06-07T10:23:23.972Z,3568.00
2019-06-07T10:24:23.923Z,3440.00
2019-06-07T10:25:23.877Z,3296.00
2019-06-07T10:26:23.833Z,3400.00
2019-06-07T10:27:23.821Z,4428.00
2019-06-07T10:28:23.739Z,3312.00
2019-06-07T10:29:23.719Z,2960.00
2019-06-07T10:30:23.650Z,5212.00
2019-06-07T10:31:23.607Z,3408.00
2019-06-07T10:32:23.586Z,3108.00
2019-06-07T10:33:23.513Z,2868.00
2019-06-07T10:34:23.468Z,2892.00
2019-06-07T10:35:23.423Z,3064.00
2019-06-07T10:36:23.379Z,3084.00
2019-06-07T10:37:23.355Z,3412.00
2019-06-07T10:38:23.286Z,3172.00
2019-06-07T10:39:23.242Z,3172.00
2019-06-07T10:40:23.195Z,3212.00
2019-06-07T10:41:23.150Z,3024.00
2019-06-07T10:42:23.151Z,3216.00
2019-06-07T10:43:23.060Z,3588.00
2019-06-07T10:44:23.018Z,3952.00
2019-06-07T10:45:22.965Z,3664.00
2019-06-07T10:46:22.922Z,3112.00
2019-06-07T10:47:22.882Z,3000.00
2019-06-07T10:48:24.989Z,2864.00
2019-06-07T10:49:22.788Z,3292.00
2019-06-07T10:50:22.739Z,3428.00
2019-06-07T10:51:22.699Z,3336.00
2019-06-07T10:52:22.656Z,4000.00
2019-06-07T10:53:22.626Z,3564.00
2019-06-07T10:54:29.429Z,3348.00
2019-06-07T10:55:22.513Z,3288.00
2019-06-07T10:56:22.475Z,3132.00
2019-06-07T10:57:22.433Z,2844.00
2019-06-07T10:58:22.399Z,2856.00
2019-06-07T10:59:22.334Z,2688.00
2019-06-07T11:00:22.308Z,2788.00
2019-06-07T11:01:22.257Z,2876.00
2019-06-07T11:02:22.198Z,2888.00
2019-06-07T11:03:22.178Z,2728.00
2019-06-07T11:04:22.153Z,2684.00
2019-06-07T11:05:22.061Z,3356.00
2019-06-07T11:06:22.020Z,2108.00
2019-06-07T11:07:21.971Z,3008.00
2019-06-07T11:08:21.950Z,2908.00
2019-06-07T11:09:21.885Z,2700.00
2019-06-07T11:10:21.834Z,2788.00
2019-06-07T11:11:21.793Z,3216.00
2019-06-07T11:12:21.746Z,3152.00
2019-06-07T11:13:21.723Z,2644.00
2019-06-07T11:14:21.655Z,2656.00
2019-06-07T11:15:21.611Z,2644.00
2019-06-07T11:16:21.566Z,2644.00
2019-06-07T11:17:21.521Z,2636.00
2019-06-07T11:18:21.494Z,2596.00
2019-06-07T11:19:21.429Z,2520.00
2019-06-07T11:20:21.388Z,2528.00
2019-06-07T11:21:21.337Z,2700.00
2019-06-07T11:22:21.298Z,2376.00
2019-06-07T11:23:21.269Z,2376.00
2019-06-07T11:24:24.590Z,2628.00
2019-06-07T11:25:21.161Z,2228.00
2019-06-07T11:26:21.112Z,2188.00
2019-06-07T11:27:21.129Z,2268.00
2019-06-07T11:28:21.043Z,2292.00
2019-06-07T11:29:20.976Z,2336.00
2019-06-07T11:30:20.945Z,2388.00
2019-06-07T11:31:20.888Z,2672.00
2019-06-07T11:32:20.845Z,3324.00
2019-06-07T11:33:20.817Z,2364.00
2019-06-07T11:34:20.749Z,2420.00
2019-06-07T11:35:20.703Z,2328.00
2019-06-07T11:36:20.657Z,2284.00
2019-06-07T11:37:20.612Z,2520.00
2019-06-07T11:38:20.594Z,2204.00
2019-06-07T11:39:20.593Z,2268.00
2019-06-07T11:40:34.983Z,2680.00
2019-06-07T11:41:20.429Z,2464.00
2019-06-07T11:42:20.388Z,2472.00
2019-06-07T11:43:20.363Z,2372.00
2019-06-07T11:44:20.295Z,2544.00
2019-06-07T11:45:20.253Z,2456.00
2019-06-07T11:46:20.202Z,2300.00
2019-06-07T11:47:20.158Z,3384.00
2019-06-07T11:48:20.141Z,2552.00
2019-06-07T11:49:22.014Z,3840.00
2019-06-07T11:50:20.036Z,5236.00
2019-06-07T11:51:19.973Z,5748.00
2019-06-07T11:52:19.931Z,3348.00
2019-06-07T11:53:20.129Z,2840.00
2019-06-07T11:54:20.578Z,2000.00
2019-06-07T11:55:19.799Z,2176.00
2019-06-07T11:56:19.749Z,2232.00
2019-06-07T11:57:19.703Z,2184.00
2019-06-07T11:58:21.687Z,2120.00
2019-06-07T11:59:19.613Z,2680.00
2019-06-07T12:00:19.574Z,3160.00
2019-06-07T12:01:19.539Z,3252.00
2019-06-07T12:02:19.481Z,3280.00
2019-06-07T12:03:19.458Z,3168.00
2019-06-07T12:04:32.471Z,3260.00
2019-06-07T12:05:20.430Z,2960.00
2019-06-07T12:06:19.295Z,3584.00
2019-06-07T12:07:19.967Z,3364.00
2019-06-07T12:08:19.226Z,2152.00
2019-06-07T12:09:19.156Z,2356.00
2019-06-07T12:10:22.704Z,2184.00
2019-06-07T12:11:19.067Z,2116.00
2019-06-07T12:12:20.420Z,2208.00
2019-06-07T12:13:19.123Z,2444.00
2019-06-07T12:14:26.964Z,2936.00
2019-06-07T12:15:19.325Z,4464.00
2019-06-07T12:16:19.442Z,4988.00
2019-06-07T12:17:19.603Z,5124.00
2019-06-07T12:18:19.679Z,8020.00
2019-06-07T12:19:19.774Z,4972.00
2019-06-07T12:20:20.806Z,5728.00
2019-06-07T12:21:19.883Z,3956.00
2019-06-07T12:22:19.911Z,3144.00
2019-06-07T12:23:18.561Z,3724.00
2019-06-07T12:24:19.431Z,3648.00
2019-06-07T12:25:21.502Z,3948.00
2019-06-07T12:26:18.668Z,4352.00
2019-06-07T12:27:18.760Z,4380.00
2019-06-07T12:28:18.794Z,4560.00
2019-06-07T12:29:19.177Z,5460.00
2019-06-07T12:30:26.263Z,7264.00
2019-06-07T12:31:19.227Z,5548.00
2019-06-07T12:32:19.481Z,4236.00
2019-06-07T12:33:19.569Z,3660.00
2019-06-07T12:34:19.421Z,3056.00